Time;durP1;ratioP1;P1;durP2;ratioP2;P2;SDS_P1;SDS_P2;PMS_P1;PMS_P2;Temp;Humidity;BMP_temperature;BMP_pressure;BME280_temperature;BME280_humidity;BME280_pressure;Samples;Min_cycle;Max_cycle;Signal;HPM_P1;HPM_P2
2023/03/21 00:01:19;;;;;;;;;;;11.60;83.50;;;10.96;65.84;100681.22;5071663;22;19928;-82
2023/03/21 00:03:48;;;;;;;;;;;11.60;83.50;;;10.96;65.68;100673.22;5059213;28;19963;-81
2023/03/21 00:06:15;;;;;;;;;;;11.60;83.10;;;10.96;65.38;100669.72;5057011;28;19928;-80
2023/03/21 00:08:41;;;;;;;;;;;11.60;82.90;;;10.97;65.23;100674.03;5065353;28;19928;-80
2023/03/21 00:11:11;;;;;;;;;;;11.60;82.90;;;10.96;64.73;100667.06;5067243;28;19956;-78
2023/03/21 00:13:41;;;;;;;;;;;11.70;82.10;;;10.96;64.54;100672.41;5020218;28;19925;-83
2023/03/21 00:16:14;;;;;;;;;;;11.70;82.30;;;10.97;64.99;100674.03;5040562;28;19927;-81
2023/03/21 00:18:41;;;;;;;;;;;11.70;82.70;;;10.97;65.20;100663.38;5038167;28;19921;-80
2023/03/21 00:21:11;;;;;;;;;;;11.70;82.90;;;10.97;65.08;100668.69;5034258;28;19928;-84
2023/03/21 00:23:38;;;;;;;;;;;11.70;82.80;;;10.96;65.05;100665.22;5042422;28;19925;-81
2023/03/21 00:26:08;;;;;;;;;;;11.70;82.80;;;10.97;65.25;100658.03;5041127;28;19979;-79
2023/03/21 00:28:35;;;;;;;;;;;11.70;83.00;;;10.97;65.19;100658.84;5034597;28;19924;-79
2023/03/21 00:31:04;;;;;;;;;;;11.90;82.80;;;10.97;64.44;100647.34;5043057;28;19936;-80
2023/03/21 00:33:31;;;;;;;;;;;11.70;81.90;;;10.96;63.89;100651.88;5024811;28;19920;-80
2023/03/21 00:35:58;;;;;;;;;;;11.70;81.60;;;10.95;64.15;100646.75;5041062;28;20300;-82
2023/03/21 00:38:27;;;;;;;;;;;11.70;82.20;;;10.96;64.26;100645.72;5019169;28;19920;-83
2023/03/21 00:40:54;;;;;;;;;;;11.70;82.20;;;10.95;64.33;100633.41;5050649;28;19924;-78
2023/03/21 00:43:22;;;;;;;;;;;11.60;81.90;;;10.94;63.79;100637.94;5031809;28;19927;-80
2023/03/21 00:45:51;;;;;;;;;;;11.60;81.40;;;10.95;63.60;100638.75;5048037;28;20002;-80
2023/03/21 00:48:19;;;;;;;;;;;11.50;81.10;;;10.93;63.37;100628.28;5042585;28;19930;-80
2023/03/21 00:50:46;;;;;;;;;;;11.60;81.10;;;10.91;62.62;100633.00;5030474;28;19921;-81
2023/03/21 00:53:15;;;;;;;;;;;11.60;80.20;;;10.93;63.22;100620.28;5032172;28;19925;-79
2023/03/21 00:55:42;;;;;;;;;;;11.60;80.80;;;10.94;63.67;100631.78;5040719;28;19921;-80
2023/03/21 00:58:09;;;;;;;;;;;11.60;81.40;;;10.93;63.38;100625.63;5020621;28;20027;-80
2023/03/21 01:00:36;;;;;;;;;;;11.60;80.90;;;10.93;63.39;100624.78;5044761;28;19924;-80
2023/03/21 01:03:06;;;;;;;;;;;11.70;81.10;;;10.92;62.95;100623.16;5028252;28;20009;-79
2023/03/21 01:08:23;;;;;;;;;;;11.50;80.80;;;10.86;63.25;100621.31;5037448;28;19971;-81
2023/03/21 01:10:51;;;;;;;;;;;11.50;81.00;;;10.78;63.61;100617.00;5023562;28;19936;-82
2023/03/21 01:13:20;;;;;;;;;;;11.50;81.20;;;10.75;63.93;100612.13;5044597;28;20018;-79
2023/03/21 01:15:48;;;;;;;;;;;11.40;81.70;;;10.75;64.47;100615.59;5040496;28;19930;-80
2023/03/21 01:18:18;;;;;;;;;;;11.40;82.00;;;10.71;64.44;100611.72;5023097;28;19924;-79
2023/03/21 01:20:47;;;;;;;;;;;11.40;82.00;;;10.73;64.56;100608.81;5018861;28;20020;-78
2023/03/21 01:23:15;;;;;;;;;;;11.50;82.30;;;10.75;64.87;100607.59;5043309;28;19920;-82
2023/03/21 01:25:42;;;;;;;;;;;11.40;82.60;;;10.76;64.90;100606.56;5043778;28;19921;-79
2023/03/21 01:28:10;;;;;;;;;;;11.50;82.70;;;10.77;64.87;100599.38;5018764;28;19936;-80
2023/03/21 01:30:37;;;;;;;;;;;11.40;82.70;;;10.77;64.78;100602.84;5017650;28;20016;-79
2023/03/21 01:33:04;;;;;;;;;;;11.50;82.60;;;10.76;64.64;100603.06;5026111;28;19991;-83
2023/03/21 01:35:31;;;;;;;;;;;11.40;82.30;;;10.77;64.60;100604.72;5030038;28;20018;-82
2023/03/21 01:38:00;;;;;;;;;;;11.50;82.50;;;10.77;64.76;100610.88;5041527;28;20293;-81
2023/03/21 01:40:27;;;;;;;;;;;11.40;82.40;;;10.78;64.74;100604.53;5048464;28;19944;-82
2023/03/21 01:43:15;;;;;;;;;;;11.40;82.50;;;10.79;65.06;100594.66;5035145;28;19947;-78
2023/03/21 01:46:20;;;;;;;;;;;11.50;82.70;;;10.79;65.24;100597.34;5018816;28;20285;-80
2023/03/21 01:49:10;;;;;;;;;;;11.50;82.90;;;10.80;65.14;100598.97;5044981;28;19960;-81
2023/03/21 01:51:40;;;;;;;;;;;11.50;82.90;;;10.80;65.21;100593.63;5022967;28;21345;-79
2023/03/21 01:54:13;;;;;;;;;;;11.50;82.80;;;10.79;64.98;100592.81;5049527;28;19982;-81
2023/03/21 01:56:41;;;;;;;;;;;11.60;82.90;;;10.80;65.22;100591.78;5029420;28;19998;-81
2023/03/21 01:59:20;;;;;;;;;;;11.50;83.00;;;10.80;65.02;100586.44;5014949;28;20463;-82
2023/03/21 02:02:08;;;;;;;;;;;11.50;82.80;;;10.81;65.06;100576.59;5036465;28;19932;-79
2023/03/21 02:04:54;;;;;;;;;;;11.50;82.90;;;10.82;65.10;100580.88;5030854;28;20003;-80
2023/03/21 02:07:27;;;;;;;;;;;11.50;82.90;;;10.83;64.81;100574.53;5028209;28;20012;-79
2023/03/21 02:10:03;;;;;;;;;;;11.50;82.70;;;10.82;64.99;100579.03;5027202;28;19932;-80
2023/03/21 02:12:31;;;;;;;;;;;11.50;82.90;;;10.83;64.96;100571.84;5011630;28;19936;-82
2023/03/21 02:14:59;;;;;;;;;;;11.50;82.80;;;10.80;64.66;100581.09;5017031;28;19924;-79
2023/03/21 02:17:36;;;;;;;;;;;11.50;82.50;;;10.80;64.77;100573.09;5021022;28;20343;-81
2023/03/21 02:20:36;;;;;;;;;;;11.50;82.60;;;10.80;65.10;100567.78;5042543;28;20023;-80
2023/03/21 02:23:32;;;;;;;;;;;11.50;82.90;;;10.81;65.06;100563.25;5028360;28;19925;-82
2023/03/21 02:26:19;;;;;;;;;;;11.50;82.90;;;10.83;65.21;100561.19;5006000;28;19998;-81
2023/03/21 02:28:49;;;;;;;;;;;11.50;83.00;;;10.82;64.82;100562.22;5042570;28;20070;-80
2023/03/21 02:31:32;;;;;;;;;;;11.50;82.70;;;10.75;65.46;100562.25;5018544;28;19931;-79
2023/03/21 02:34:46;;;;;;;;;;;11.40;83.20;;;10.74;65.70;100560.63;5018507;28;19925;-80
2023/03/21 02:37:20;;;;;;;;;;;11.40;83.50;;;10.69;66.80;100559.59;4968567;28;19922;-83
2023/03/21 02:39:56;;;;;;;;;;;11.40;84.50;;;10.69;67.62;100562.28;5018876;28;19925;-81
2023/03/21 02:42:28;;;;;;;;;;;11.40;85.30;;;10.67;67.60;100566.97;5032123;28;19932;-81
2023/03/21 02:45:00;;;;;;;;;;;11.40;85.10;;;10.70;67.78;100566.56;5046703;28;20022;-82
2023/03/21 02:47:32;;;;;;;;;;;11.40;85.30;;;10.71;67.77;100560.22;5025649;28;19928;-80
2023/03/21 02:50:05;;;;;;;;;;;11.40;85.20;;;10.72;67.71;100560.00;5033425;28;19931;-80
2023/03/21 02:52:36;;;;;;;;;;;11.40;85.30;;;10.74;68.01;100554.47;5031142;28;19921;-80
2023/03/21 02:55:05;;;;;;;;;;;11.40;85.40;;;10.75;67.87;100554.25;5019637;28;19920;-80
2023/03/21 02:57:43;;;;;;;;;;;11.50;85.40;;;10.76;67.78;100539.88;5025594;28;19935;-80
2023/03/21 03:00:15;;;;;;;;;;;11.40;85.30;;;10.78;67.69;100539.66;5025689;28;19956;-79
2023/03/21 03:02:42;;;;;;;;;;;11.50;85.30;;;10.80;67.67;100541.09;5040432;28;19924;-82
2023/03/21 03:05:15;;;;;;;;;;;11.50;85.10;;;10.82;67.80;100538.19;5029026;28;19929;-80
2023/03/21 03:07:50;;;;;;;;;;;11.50;85.30;;;10.83;67.73;100529.16;5043921;28;19928;-81
2023/03/21 03:10:29;;;;;;;;;;;11.50;85.30;;;10.84;67.68;100528.16;5044462;28;19987;-80
2023/03/21 03:13:05;;;;;;;;;;;11.50;85.30;;;10.86;67.72;100530.59;5049707;28;20017;-79
2023/03/21 03:15:40;;;;;;;;;;;11.50;85.20;;;10.86;67.75;100526.09;5048247;28;19935;-79
2023/03/21 03:18:13;;;;;;;;;;;11.60;85.30;;;10.88;67.79;100536.53;5021637;28;19925;-80
2023/03/21 03:20:50;;;;;;;;;;;11.50;85.40;;;10.87;67.68;100525.03;5033029;28;20054;-80
2023/03/21 03:23:25;;;;;;;;;;;11.60;85.20;;;10.88;67.74;100528.53;5021984;28;19979;-83
2023/03/21 03:25:55;;;;;;;;;;;11.50;85.20;;;10.88;67.80;100524.00;5026212;28;19944;-82
2023/03/21 03:28:26;;;;;;;;;;;11.60;85.20;;;10.91;67.65;100531.59;5022439;28;19982;-80
2023/03/21 03:30:54;;;;;;;;;;;11.60;85.20;;;10.91;67.72;100520.13;5023301;28;19927;-81
2023/03/21 03:33:26;;;;;;;;;;;11.60;85.10;;;10.92;67.80;100519.91;5025215;28;19925;-79
2023/03/21 03:35:55;;;;;;;;;;;11.60;85.10;;;10.92;67.71;100511.88;5029983;28;20250;-79
2023/03/21 03:38:24;;;;;;;;;;;11.60;85.10;;;10.92;67.94;100509.22;5020235;28;20361;-81
2023/03/21 03:40:54;;;;;;;;;;;11.60;85.10;;;10.93;67.83;100510.88;5038876;28;19929;-81
2023/03/21 03:43:43;;;;;;;;;;;11.60;85.10;;;10.94;67.80;100509.03;5049465;28;19921;-78
2023/03/21 03:46:12;;;;;;;;;;;11.60;85.10;;;10.95;67.85;100505.31;5048616;28;20012;-79
2023/03/21 03:48:45;;;;;;;;;;;11.60;85.10;;;10.94;67.68;100509.03;5026119;28;20011;-81
2023/03/21 03:51:17;;;;;;;;;;;11.60;85.10;;;10.94;67.70;100509.03;5041551;28;19929;-80
2023/03/21 03:54:06;;;;;;;;;;;11.60;85.10;;;10.93;67.72;100502.88;5040247;28;19936;-79
2023/03/21 03:56:33;;;;;;;;;;;11.60;85.20;;;10.93;67.98;100499.38;5028529;28;19927;-80
2023/03/21 03:59:03;;;;;;;;;;;11.60;85.20;;;10.92;67.78;100498.53;5021902;28;19967;-82
2023/03/21 04:01:48;;;;;;;;;;;11.60;85.30;;;10.91;67.71;100494.25;5024776;28;19955;-83
2023/03/21 04:04:16;;;;;;;;;;;11.60;85.10;;;10.91;67.72;100498.78;5043057;28;20389;-80
2023/03/21 04:06:50;;;;;;;;;;;11.60;85.20;;;10.91;67.64;100496.91;5027017;28;19921;-79
2023/03/21 04:09:20;;;;;;;;;;;11.60;85.10;;;10.90;67.81;100497.13;5022106;28;20004;-81
2023/03/21 04:11:47;;;;;;;;;;;11.60;85.20;;;10.89;67.70;100490.16;5023109;28;20298;-79
2023/03/21 04:14:15;;;;;;;;;;;11.60;85.10;;;10.88;67.75;100493.84;5023096;28;20376;-79
2023/03/21 04:16:42;;;;;;;;;;;11.60;85.30;;;10.87;67.63;100492.22;5020437;28;19929;-80
2023/03/21 04:19:09;;;;;;;;;;;11.50;85.00;;;10.87;67.57;100486.88;5016647;28;19964;-82
2023/03/21 04:21:37;;;;;;;;;;;11.50;85.00;;;10.86;67.54;100487.91;5027507;28;20015;-79
2023/03/21 04:24:06;;;;;;;;;;;11.60;84.90;;;10.85;67.63;100484.44;5019841;28;19983;-81
2023/03/21 04:26:35;;;;;;;;;;;11.50;84.90;;;10.85;67.51;100481.75;5031686;28;20307;-79
2023/03/21 04:29:20;;;;;;;;;;;11.50;84.90;;;10.85;67.46;100487.09;5051153;28;19951;-79
2023/03/21 04:32:14;;;;;;;;;;;11.60;84.90;;;10.85;67.47;100483.63;5033267;28;20377;-80
2023/03/21 04:34:48;;;;;;;;;;;11.60;85.00;;;10.85;67.42;100481.75;5016980;28;19925;-80
2023/03/21 04:37:17;;;;;;;;;;;11.60;85.10;;;10.85;67.47;100483.63;5023546;28;19998;-80
2023/03/21 04:39:46;;;;;;;;;;;11.50;85.10;;;10.85;67.46;100484.44;5031651;28;19920;-83
2023/03/21 04:42:17;;;;;;;;;;;11.60;85.10;;;10.86;67.49;100479.91;5026490;28;20424;-79
2023/03/21 04:44:44;;;;;;;;;;;11.60;85.00;;;10.87;67.56;100476.22;5031154;28;19920;-81
2023/03/21 04:47:12;;;;;;;;;;;11.60;85.10;;;10.87;67.58;100481.53;5041045;28;20468;-81
2023/03/21 04:49:39;;;;;;;;;;;11.60;85.10;;;10.88;67.70;100480.50;5019873;28;19924;-82
2023/03/21 04:52:06;;;;;;;;;;;11.60;85.10;;;10.88;67.37;100485.84;5020955;28;19925;-83
2023/03/21 04:54:33;;;;;;;;;;;11.50;85.00;;;10.88;67.36;100477.84;5031834;28;19966;-81
2023/03/21 04:57:00;;;;;;;;;;;11.60;84.90;;;10.87;67.08;100476.22;5042842;28;20039;-78
2023/03/21 04:59:29;;;;;;;;;;;11.60;84.60;;;10.87;67.09;100470.88;5038117;28;20023;-81
2023/03/21 05:01:57;;;;;;;;;;;11.60;84.70;;;10.88;67.19;100467.16;5023740;28;19924;-80
2023/03/21 05:04:25;;;;;;;;;;;11.50;84.70;;;10.88;67.10;100472.50;5022243;28;19963;-79
2023/03/21 05:06:53;;;;;;;;;;;11.50;84.70;;;10.86;67.10;100467.38;5030903;28;19936;-79
2023/03/21 05:09:21;;;;;;;;;;;11.50;84.50;;;10.87;66.88;100470.88;5050174;28;19921;-82
2023/03/21 05:11:49;;;;;;;;;;;11.50;84.50;;;10.88;67.09;100469.84;5048570;28;19969;-80
2023/03/21 05:14:18;;;;;;;;;;;11.60;84.70;;;10.88;66.93;100467.16;5030199;28;19925;-78
2023/03/21 05:16:51;;;;;;;;;;;11.50;84.60;;;10.88;67.01;100467.16;5020420;28;20322;-79
2023/03/21 05:19:21;;;;;;;;;;;11.50;84.70;;;10.87;66.75;100469.00;5012988;28;20381;-79
2023/03/21 05:21:49;;;;;;;;;;;11.50;84.50;;;10.88;66.86;100464.50;5012596;28;20020;-77
2023/03/21 05:24:26;;;;;;;;;;;11.60;84.40;;;10.86;66.80;100464.72;5028822;28;20365;-80
2023/03/21 05:26:54;;;;;;;;;;;11.50;84.30;;;10.87;66.87;100460.19;5022599;28;19939;-79
2023/03/21 05:29:23;;;;;;;;;;;11.50;84.50;;;10.87;67.10;100454.88;5030038;28;20331;-78
2023/03/21 05:32:00;;;;;;;;;;;11.60;84.70;;;10.87;67.24;100466.34;5023495;28;19963;-78
2023/03/21 05:34:28;;;;;;;;;;;11.50;84.80;;;10.87;67.12;100463.69;5038744;28;19931;-78
2023/03/21 05:36:55;;;;;;;;;;;11.60;84.70;;;10.87;67.25;100458.34;5022855;28;19920;-77
2023/03/21 05:39:25;;;;;;;;;;;11.60;84.70;;;10.87;67.33;100462.88;5025914;28;19921;-81
2023/03/21 05:42:11;;;;;;;;;;;11.50;84.80;;;10.87;67.30;100454.88;5020325;28;19921;-82
2023/03/21 05:44:39;;;;;;;;;;;11.50;84.90;;;10.87;67.34;100452.19;5018555;28;20573;-76
2023/03/21 05:47:08;;;;;;;;;;;11.50;84.90;;;10.88;67.26;100456.50;5021486;28;19931;-79
2023/03/21 05:49:44;;;;;;;;;;;11.60;84.90;;;10.88;67.52;100453.81;5021903;28;20395;-78
2023/03/21 05:52:12;;;;;;;;;;;11.60;84.90;;;10.88;67.47;100457.31;5042078;28;19925;-79
2023/03/21 05:54:39;;;;;;;;;;;11.60;85.00;;;10.90;67.62;100460.59;5033443;28;19932;-82
2023/03/21 05:57:09;;;;;;;;;;;11.60;85.10;;;10.91;67.51;100458.75;5014615;28;19939;-80
2023/03/21 05:59:56;;;;;;;;;;;11.60;85.10;;;10.89;67.45;100448.28;5036556;28;19975;-79
2023/03/21 06:02:25;;;;;;;;;;;11.60;84.90;;;10.91;67.47;100467.56;5022428;28;19928;-82
2023/03/21 06:04:53;;;;;;;;;;;11.60;84.90;;;10.90;67.50;100459.78;5050845;23;19925;-85
2023/03/21 06:07:21;;;;;;;;;;;11.60;85.00;;;10.90;67.69;100457.94;5073419;28;19927;-83
2023/03/21 06:09:49;;;;;;;;;;;11.60;85.10;;;10.91;67.77;100462.22;5063207;28;20015;-82
2023/03/21 06:12:16;;;;;;;;;;;11.60;85.10;;;10.91;67.66;100466.75;5061413;28;19924;-85
2023/03/21 06:15:19;;;;;;;;;;;11.60;85.20;;;10.91;67.58;100464.91;5043123;28;19925;-85
2023/03/21 06:17:59;;;;;;;;;;;11.60;85.20;;;10.91;67.85;100464.91;5049828;28;20400;-86
2023/03/21 06:20:26;;;;;;;;;;;11.60;85.30;;;10.91;67.67;100462.22;5039768;28;19929;-86
2023/03/21 06:22:57;;;;;;;;;;;11.60;85.40;;;10.91;68.02;100456.91;5044187;28;19925;-84
2023/03/21 06:25:24;;;;;;;;;;;11.60;85.50;;;10.92;68.07;100466.53;5050871;28;20389;-86
2023/03/21 06:27:51;;;;;;;;;;;11.60;85.60;;;10.92;68.02;100468.38;5049650;28;19921;-87
2023/03/21 06:30:19;;;;;;;;;;;11.60;85.50;;;10.92;68.23;100457.72;5050225;28;20373;-88
2023/03/21 06:33:02;;;;;;;;;;;11.60;85.50;;;10.91;68.33;100462.22;5042231;28;19924;-87
2023/03/21 06:35:29;;;;;;;;;;;11.60;85.70;;;10.92;68.46;100465.72;5045134;28;19925;-86
2023/03/21 06:37:57;;;;;;;;;;;11.60;85.70;;;10.94;68.55;100463.66;5038727;28;19944;-81
2023/03/21 06:40:25;;;;;;;;;;;11.60;85.90;;;10.94;69.11;100464.47;5050742;28;19920;-80
2023/03/21 06:42:53;;;;;;;;;;;11.60;86.30;;;10.95;69.28;100462.63;5045545;28;20024;-92
2023/03/21 06:45:20;;;;;;;;;;;11.60;86.20;;;10.95;69.10;100452.78;5041695;28;20310;-90
2023/03/21 06:47:47;;;;;;;;;;;11.70;86.30;;;10.97;69.25;100455.22;5032384;28;20382;-93
2023/03/21 06:50:36;;;;;;;;;;;11.60;86.30;;;10.96;69.03;100456.25;5043685;28;19932;-92
2023/03/21 06:53:04;;;;;;;;;;;11.70;86.30;;;10.96;69.08;100449.06;5041815;28;19960;-90
2023/03/21 06:55:35;;;;;;;;;;;11.70;86.40;;;10.97;69.31;100441.88;5038070;28;19939;-90
2023/03/21 06:58:03;;;;;;;;;;;11.70;86.60;;;10.97;69.65;100447.22;5041170;28;19925;-92
2023/03/21 07:00:30;;;;;;;;;;;11.70;86.90;;;10.98;69.52;100448.84;5038084;28;20016;-92
2023/03/21 07:02:59;;;;;;;;;;;11.70;86.80;;;11.00;69.66;100454.78;5038087;28;19924;-92
2023/03/21 07:05:27;;;;;;;;;;;11.70;86.80;;;10.99;69.66;100453.97;5038058;28;19927;-91
2023/03/21 07:07:55;;;;;;;;;;;11.70;86.90;;;10.99;69.75;100456.66;5046794;28;19970;-91
2023/03/21 07:10:23;;;;;;;;;;;11.70;86.90;;;11.00;69.50;100447.59;5038376;28;20396;-92
2023/03/21 07:13:01;;;;;;;;;;;11.70;86.90;;;11.02;69.95;100464.22;5045075;28;19920;-92
2023/03/21 07:15:42;;;;;;;;;;;11.70;87.00;;;11.01;69.82;100467.91;5042743;28;19925;-91
2023/03/21 07:18:10;;;;;;;;;;;11.70;86.90;;;11.01;69.21;100467.91;5035458;28;19929;-90
2023/03/21 07:20:37;;;;;;;;;;;11.70;86.50;;;11.02;69.20;100469.56;5034548;28;20288;-91
2023/03/21 07:23:06;;;;;;;;;;;11.70;86.70;;;11.00;69.62;100471.63;5048360;28;19963;-91
2023/03/21 07:25:34;;;;;;;;;;;11.70;86.90;;;11.02;69.88;100466.06;5040214;28;20004;-92
2023/03/21 07:28:01;;;;;;;;;;;11.70;87.10;;;11.00;69.80;100466.28;5043163;28;19921;-92
2023/03/21 07:30:29;;;;;;;;;;;11.70;87.00;;;11.02;69.89;100474.88;5038093;28;19920;-90
2023/03/21 07:32:56;;;;;;;;;;;11.60;86.80;;;11.00;69.59;100479.63;5042788;28;19955;-94
2023/03/21 07:35:24;;;;;;;;;;;11.70;86.80;;;11.00;69.66;100478.81;5041378;28;19935;-91
2023/03/21 07:37:53;;;;;;;;;;;11.70;86.90;;;10.96;69.90;100467.75;5040784;28;19986;-95
2023/03/21 07:40:22;;;;;;;;;;;11.70;87.10;;;10.94;70.17;100472.50;5048532;28;19924;-93
2023/03/21 07:42:50;;;;;;;;;;;11.60;87.30;;;10.88;70.41;100469.84;5039053;28;19924;-90
2023/03/21 07:45:28;;;;;;;;;;;11.60;87.70;;;10.87;70.58;100470.88;5039549;28;20015;-84
2023/03/21 07:47:55;;;;;;;;;;;11.60;87.90;;;10.87;71.07;100473.53;5051032;28;20368;-88
2023/03/21 07:50:22;;;;;;;;;;;11.60;88.10;;;10.89;70.69;100472.31;5047768;28;20023;-87
2023/03/21 07:52:49;;;;;;;;;;;11.60;87.60;;;10.88;70.77;100457.31;5045295;28;19924;-87
2023/03/21 07:55:17;;;;;;;;;;;11.70;87.80;;;10.91;70.32;100464.09;5033332;28;19921;-84
2023/03/21 07:57:45;;;;;;;;;;;11.60;87.40;;;10.89;70.71;100458.97;5044708;28;19967;-84
2023/03/21 08:00:21;;;;;;;;;;;11.60;87.70;;;10.87;71.05;100458.34;5045719;28;20312;-86
2023/03/21 08:02:53;;;;;;;;;;;11.60;87.90;;;10.86;70.90;100462.06;5049670;28;19932;-87
2023/03/21 08:05:21;;;;;;;;;;;11.60;87.70;;;10.91;70.71;100461.41;5034918;28;19925;-88
2023/03/21 08:07:51;;;;;;;;;;;11.60;87.60;;;10.93;70.74;100460.19;5044693;28;19931;-92
2023/03/21 08:10:18;;;;;;;;;;;11.70;87.70;;;10.97;70.57;100456.03;5041586;28;19978;-88
2023/03/21 08:12:47;;;;;;;;;;;11.80;87.50;;;11.02;70.64;100460.72;5039029;28;19978;-90
2023/03/21 08:15:15;;;;;;;;;;;11.80;87.50;;;11.05;71.12;100463.78;5038642;28;19928;-89
2023/03/21 08:17:44;;;;;;;;;;;11.80;87.90;;;11.08;70.77;100460.72;5037295;28;20323;-88
2023/03/21 08:20:13;;;;;;;;;;;11.80;87.70;;;11.14;71.03;100456.34;5040041;28;19925;-88
2023/03/21 08:22:40;;;;;;;;;;;11.80;87.90;;;11.14;71.09;100461.69;5043536;28;20506;-89
2023/03/21 08:25:13;;;;;;;;;;;11.90;87.90;;;11.16;71.15;100459.63;5042190;28;19951;-90
2023/03/21 08:27:40;;;;;;;;;;;11.90;88.10;;;11.18;71.31;100454.91;5037626;28;19932;-87
2023/03/21 08:30:12;;;;;;;;;;;11.90;88.30;;;11.19;71.59;100451.19;5041430;28;20396;-88
2023/03/21 08:32:39;;;;;;;;;;;11.90;88.30;;;11.22;72.05;100452.59;5048768;28;20385;-92
2023/03/21 08:35:08;;;;;;;;;;;11.90;88.70;;;11.24;72.39;100443.34;5037243;28;20017;-90
2023/03/21 08:37:36;;;;;;;;;;;12.00;89.00;;;11.26;72.07;100459.97;5052728;28;19941;-89
2023/03/21 08:40:06;;;;;;;;;;;12.00;88.50;;;11.29;72.11;100451.53;5048695;28;19925;-88
2023/03/21 08:42:33;;;;;;;;;;;12.00;88.90;;;11.28;72.44;100454.41;5043962;28;20405;-91
2023/03/21 08:45:00;;;;;;;;;;;12.00;89.00;;;11.28;72.37;100463.25;5043703;28;20551;-90
2023/03/21 08:47:29;;;;;;;;;;;12.00;88.90;;;11.31;72.08;100460.13;5046171;28;20488;-89
2023/03/21 08:49:56;;;;;;;;;;;12.00;88.60;;;11.34;72.53;100470.38;5032121;28;19968;-90
2023/03/21 08:52:24;;;;;;;;;;;12.10;89.10;;;11.33;72.67;100471.44;5060196;28;20369;-92
2023/03/21 08:54:51;;;;;;;;;;;12.10;89.10;;;11.35;72.78;100468.53;5045233;28;19925;-90
2023/03/21 08:57:18;;;;;;;;;;;12.10;89.20;;;11.33;73.03;100473.28;5046934;28;19921;-89
2023/03/21 08:59:46;;;;;;;;;;;12.10;89.30;;;11.33;73.42;100466.09;5038977;28;20444;-89
2023/03/21 09:02:14;;;;;;;;;;;12.10;89.80;;;11.33;73.34;100466.09;5044879;28;20357;-90
2023/03/21 09:04:42;;;;;;;;;;;12.10;89.60;;;11.32;73.39;100469.78;5036958;28;20417;-89
2023/03/21 09:07:11;;;;;;;;;;;12.10;89.50;;;11.34;73.52;100465.03;5048782;28;20368;-88
2023/03/21 09:09:38;;;;;;;;;;;12.10;89.80;;;11.37;73.71;100466.47;5051125;28;19971;-89
2023/03/21 09:12:05;;;;;;;;;;;12.10;89.70;;;11.40;74.04;100468.69;5044989;28;19925;-89
2023/03/21 09:14:33;;;;;;;;;;;12.10;90.40;;;11.41;74.48;100465.00;5039246;28;19921;-88
2023/03/21 09:17:00;;;;;;;;;;;12.20;90.70;;;11.37;74.49;100458.47;5038991;28;20829;-88
2023/03/21 09:19:28;;;;;;;;;;;12.10;90.40;;;11.39;74.57;100463.59;5035339;28;19951;-90
2023/03/21 09:21:57;;;;;;;;;;;12.10;90.40;;;11.33;74.56;100466.09;5034197;28;19936;-88
2023/03/21 09:24:25;;;;;;;;;;;12.10;90.60;;;11.33;74.90;100468.75;5052771;28;20016;-90
2023/03/21 09:26:52;;;;;;;;;;;12.10;90.80;;;11.35;75.05;100458.66;5038828;28;19924;-89
2023/03/21 09:29:20;;;;;;;;;;;12.10;90.80;;;11.34;75.78;100459.69;5038638;28;20443;-93
2023/03/21 09:31:48;;;;;;;;;;;12.00;91.20;;;11.32;76.15;100464.47;5047626;28;19925;-89
2023/03/21 09:34:15;;;;;;;;;;;12.10;91.60;;;11.35;76.60;100455.19;5036187;28;19924;-88
2023/03/21 09:36:47;;;;;;;;;;;12.10;91.80;;;11.38;76.20;100460.09;5037800;28;19932;-89
2023/03/21 09:39:16;;;;;;;;;;;12.10;91.50;;;11.40;75.89;100455.34;5040634;28;19924;-89
2023/03/21 09:42:07;;;;;;;;;;;12.10;91.60;;;11.40;76.60;100450.00;5039618;28;19927;-90
2023/03/21 09:44:47;;;;;;;;;;;12.10;91.80;;;11.43;76.21;100460.25;5045668;28;19964;-89
2023/03/21 09:47:20;;;;;;;;;;;12.20;91.60;;;11.46;76.11;100454.47;5042758;28;20314;-88
2023/03/21 09:49:52;;;;;;;;;;;12.20;91.60;;;11.49;76.05;100455.91;5043247;28;19924;-90
2023/03/21 09:52:22;;;;;;;;;;;12.20;91.40;;;11.51;76.53;100462.66;5043666;28;19921;-91
2023/03/21 09:54:54;;;;;;;;;;;12.30;91.80;;;11.55;76.07;100457.69;5037475;28;20243;-90
2023/03/21 09:57:29;;;;;;;;;;;12.30;91.60;;;11.56;76.03;100456.66;5043298;28;20022;-89
2023/03/21 09:59:58;;;;;;;;;;;12.30;91.60;;;11.57;75.82;100463.66;5040675;28;20035;-90
2023/03/21 10:02:37;;;;;;;;;;;12.30;91.50;;;11.57;75.90;100456.47;5047355;28;19924;-88
2023/03/21 10:05:18;;;;;;;;;;;12.30;91.40;;;11.60;75.60;100455.19;5045048;28;19921;-84
2023/03/21 10:07:50;;;;;;;;;;;12.40;91.20;;;11.64;75.33;100452.91;5040496;28;19921;-87
2023/03/21 10:10:23;;;;;;;;;;;12.40;91.00;;;11.66;74.99;100451.63;5043224;28;19925;-84
2023/03/21 10:12:51;;;;;;;;;;;12.30;91.00;;;11.64;75.11;100445.72;5038629;28;19931;-83
2023/03/21 10:15:21;;;;;;;;;;;12.40;90.70;;;11.66;74.71;100445.47;5036403;28;19925;-84
2023/03/21 10:17:56;;;;;;;;;;;12.40;90.50;;;11.68;74.83;100440.75;5041503;28;20478;-84
2023/03/21 10:20:25;;;;;;;;;;;12.40;90.40;;;11.68;73.89;100441.56;5041217;28;20616;-83
2023/03/21 10:22:54;;;;;;;;;;;12.40;89.70;;;11.66;73.79;100440.94;5044388;28;19968;-86
2023/03/21 10:25:28;;;;;;;;;;;12.40;89.50;;;11.64;73.64;100440.38;5041633;28;19960;-84
2023/03/21 10:27:55;;;;;;;;;;;12.40;89.60;;;11.67;73.26;100433.78;5038992;28;19956;-85
2023/03/21 10:30:38;;;;;;;;;;;12.50;89.40;;;11.69;73.41;100443.19;5045634;28;19929;-84
2023/03/21 10:33:08;;;;;;;;;;;12.50;89.60;;;11.70;73.67;100434.13;5040808;28;19971;-84
2023/03/21 10:35:36;;;;;;;;;;;12.50;89.40;;;11.69;72.97;100437.84;5039446;28;20024;-86
2023/03/21 10:38:04;;;;;;;;;;;12.50;89.10;;;11.72;73.10;100429.41;5054769;28;19921;-85
2023/03/21 10:40:33;;;;;;;;;;;12.50;89.30;;;11.70;73.21;100423.44;5031142;28;19925;-86
2023/03/21 10:43:17;;;;;;;;;;;12.50;89.30;;;11.73;73.45;100422.22;5037412;28;19931;-85
2023/03/21 10:45:46;;;;;;;;;;;12.50;89.60;;;11.73;73.38;100415.00;5035138;28;19924;-84
2023/03/21 10:48:13;;;;;;;;;;;12.50;89.30;;;11.74;73.26;100403.28;5035517;28;19928;-84
2023/03/21 10:50:41;;;;;;;;;;;12.50;89.30;;;11.78;73.40;100401.81;5037107;28;19966;-84
2023/03/21 10:53:15;;;;;;;;;;;12.50;89.70;;;11.79;73.95;100395.41;5038780;28;19924;-83
2023/03/21 10:55:46;;;;;;;;;;;12.60;89.80;;;11.80;73.88;100394.38;5037130;28;20023;-85
2023/03/21 10:58:17;;;;;;;;;;;12.60;89.70;;;11.79;73.73;100389.25;5038055;28;19921;-85
2023/03/21 11:00:45;;;;;;;;;;;12.70;89.90;;;11.77;74.14;100383.34;5047799;28;19920;-82
2023/03/21 11:03:21;;;;;;;;;;;12.60;89.90;;;11.78;74.23;100383.09;5042287;28;19957;-85
2023/03/21 11:05:49;;;;;;;;;;;12.50;90.00;;;11.84;74.38;100382.25;5041340;28;19928;-83
2023/03/21 11:08:17;;;;;;;;;;;12.60;90.20;;;11.85;74.19;100367.84;5042010;28;19979;-85
2023/03/21 11:10:52;;;;;;;;;;;12.60;90.10;;;11.90;74.05;100364.50;5032116;28;19921;-82
2023/03/21 11:13:24;;;;;;;;;;;12.60;89.90;;;11.92;74.04;100356.28;5044337;28;19983;-83
2023/03/21 11:15:54;;;;;;;;;;;12.70;90.20;;;11.92;74.15;100346.41;5051205;28;19925;-83
2023/03/21 11:18:23;;;;;;;;;;;12.70;90.20;;;11.94;74.29;100346.16;5052151;28;19987;-82
2023/03/21 11:20:52;;;;;;;;;;;12.70;90.00;;;11.95;73.99;100345.13;5050460;28;20288;-82
2023/03/21 11:23:19;;;;;;;;;;;12.70;89.90;;;11.98;74.07;100352.72;5045868;28;19996;-82
2023/03/21 11:25:50;;;;;;;;;;;12.70;90.00;;;11.99;73.96;100344.44;5051063;28;20015;-84
2023/03/21 11:28:20;;;;;;;;;;;12.70;90.00;;;12.02;73.69;100336.00;5050588;28;19933;-84
2023/03/21 11:30:54;;;;;;;;;;;12.80;89.40;;;12.02;73.32;100336.00;5050956;28;19935;-83